Time;durP1;ratioP1;P1;durP2;ratioP2;P2;SDS_P1;SDS_P2;PMS_P1;PMS_P2;Temp;Humidity;BMP_temperature;BMP_pressure;BME280_temperature;BME280_humidity;BME280_pressure;Samples;Min_cycle;Max_cycle;Signal;HPM_P1;HPM_P2
2023/03/26 00:01:32;;;;;;;13.23;3.27;;;6.10;94.10;;;;;;5014475;28;20438;-55
2023/03/26 00:03:58;;;;;;;6.63;3.20;;;6.10;94.30;;;;;;5018211;28;20499;-53
2023/03/26 00:06:28;;;;;;;8.70;3.37;;;6.10;93.80;;;;;;5027245;28;20927;-54
2023/03/26 00:08:59;;;;;;;7.90;3.27;;;6.10;94.40;;;;;;5012877;28;20438;-53
2023/03/26 00:11:27;;;;;;;9.53;2.70;;;6.10;94.60;;;;;;5000758;28;20498;-53
2023/03/26 00:13:55;;;;;;;5.63;2.47;;;6.10;94.50;;;;;;5018787;28;20443;-54
2023/03/26 00:16:22;;;;;;;13.03;3.20;;;6.10;94.20;;;;;;5023402;28;20422;-58
2023/03/26 00:18:47;;;;;;;5.10;2.30;;;6.10;94.30;;;;;;5016352;28;20966;-54
2023/03/26 00:21:18;;;;;;;12.73;2.40;;;6.10;94.30;;;;;;5018699;28;20446;-56
2023/03/26 00:23:44;;;;;;;15.87;3.23;;;6.10;93.80;;;;;;5024054;28;20180;-53
2023/03/26 00:26:11;;;;;;;10.03;2.87;;;6.10;94.00;;;;;;5018860;28;20465;-57
2023/03/26 00:28:39;;;;;;;10.60;3.20;;;6.10;94.40;;;;;;5021516;28;20692;-56
2023/03/26 00:31:07;;;;;;;9.73;2.80;;;6.10;95.10;;;;;;5014097;28;20955;-54
2023/03/26 00:33:37;;;;;;;5.70;2.40;;;6.10;95.30;;;;;;5009272;28;20446;-57
2023/03/26 00:36:04;;;;;;;12.70;3.10;;;6.10;94.90;;;;;;5000848;28;20505;-56
2023/03/26 00:38:32;;;;;;;9.47;2.70;;;6.10;94.80;;;;;;5022804;28;20821;-57
2023/03/26 00:41:04;;;;;;;12.53;3.30;;;6.00;95.60;;;;;;5005072;28;20485;-53
2023/03/26 00:43:32;;;;;;;6.30;2.93;;;6.00;96.00;;;;;;5005527;28;20442;-56
2023/03/26 00:45:58;;;;;;;10.40;2.80;;;6.00;96.80;;;;;;5014925;28;20472;-57
2023/03/26 00:48:28;;;;;;;6.00;2.77;;;5.90;97.10;;;;;;5016234;28;20592;-54
2023/03/26 00:50:54;;;;;;;6.67;2.90;;;6.00;97.50;;;;;;5025802;28;20540;-55
2023/03/26 00:53:20;;;;;;;9.60;3.53;;;5.90;97.70;;;;;;5011424;28;20434;-55
2023/03/26 00:55:47;;;;;;;4.53;2.20;;;5.90;97.50;;;;;;5009017;28;20474;-56
2023/03/26 00:58:14;;;;;;;5.47;2.30;;;5.90;97.80;;;;;;5020450;28;21154;-58
2023/03/26 01:00:49;;;;;;;8.03;2.60;;;5.90;97.90;;;;;;5024677;28;20439;-55
2023/03/26 01:03:17;;;;;;;9.00;3.10;;;5.90;98.40;;;;;;5021675;28;20434;-57
2023/03/26 01:06:10;;;;;;;9.30;3.80;;;5.90;98.70;;;;;;5019339;28;20490;-53
2023/03/26 01:08:43;;;;;;;10.70;3.33;;;5.90;98.10;;;;;;5020554;28;20450;-56
2023/03/26 01:11:42;;;;;;;7.60;3.30;;;5.80;98.70;;;;;;5006391;28;20459;-58
2023/03/26 01:14:27;;;;;;;9.03;2.93;;;5.80;99.90;;;;;;5002761;28;20443;-57
2023/03/26 01:16:59;;;;;;;6.17;3.63;;;5.80;99.90;;;;;;5005622;28;20430;-54
2023/03/26 01:19:43;;;;;;;6.30;3.00;;;5.80;99.90;;;;;;5008240;28;21180;-56
2023/03/26 01:22:15;;;;;;;6.07;2.80;;;5.80;99.90;;;;;;5005527;28;21065;-56
2023/03/26 01:24:41;;;;;;;9.97;2.57;;;5.70;99.90;;;;;;5012926;28;20619;-54
2023/03/26 01:27:17;;;;;;;5.40;2.57;;;5.70;99.90;;;;;;5017424;28;20954;-56
2023/03/26 01:29:55;;;;;;;6.17;2.90;;;5.70;99.90;;;;;;5012155;28;20253;-56
2023/03/26 01:32:43;;;;;;;12.77;4.70;;;5.70;99.90;;;;;;5019901;28;20513;-56
2023/03/26 01:35:19;;;;;;;15.93;3.67;;;5.70;99.90;;;;;;5019604;28;21476;-56
2023/03/26 01:38:11;;;;;;;9.33;3.07;;;5.70;99.90;;;;;;5024132;28;20433;-55
2023/03/26 01:40:45;;;;;;;7.77;2.90;;;5.70;99.90;;;;;;5001688;28;20541;-58
2023/03/26 01:43:34;;;;;;;6.90;3.30;;;5.70;99.90;;;;;;5007391;28;20433;-58
2023/03/26 01:46:03;;;;;;;5.60;2.60;;;5.70;99.90;;;;;;5008451;28;20470;-56
2023/03/26 01:48:38;;;;;;;12.37;2.90;;;5.70;99.90;;;;;;5017479;28;21005;-56
2023/03/26 01:51:05;;;;;;;9.17;3.57;;;5.80;99.90;;;;;;5003246;28;20465;-58
2023/03/26 01:53:36;;;;;;;6.03;2.77;;;5.70;99.90;;;;;;5009335;28;20422;-56
2023/03/26 01:56:14;;;;;;;4.03;2.80;;;5.70;99.90;;;;;;5009248;28;20714;-55
2023/03/26 01:59:08;;;;;;;6.40;3.20;;;5.80;99.90;;;;;;5004401;28;20445;-54
2023/03/26 02:02:03;;;;;;;2.90;2.50;;;5.70;99.90;;;;;;5007219;28;20430;-55
2023/03/26 02:04:37;;;;;;;11.40;3.10;;;5.70;99.90;;;;;;5024537;28;20451;-55
2023/03/26 02:07:21;;;;;;;15.90;3.77;;;5.70;99.90;;;;;;5010087;28;20430;-54
2023/03/26 02:09:54;;;;;;;6.60;2.63;;;5.70;99.90;;;;;;5005639;28;20461;-54
2023/03/26 02:12:21;;;;;;;9.80;3.20;;;5.70;99.90;;;;;;5002792;28;20433;-58
2023/03/26 02:14:47;;;;;;;7.50;3.10;;;5.70;99.90;;;;;;5007039;28;20450;-55
2023/03/26 02:17:13;;;;;;;8.27;3.00;;;5.70;99.90;;;;;;5012405;28;20438;-58
2023/03/26 02:19:41;;;;;;;8.00;2.73;;;5.60;99.90;;;;;;5000794;28;20844;-54
2023/03/26 02:22:10;;;;;;;8.47;3.10;;;5.60;99.90;;;;;;5001714;28;21258;-57
2023/03/26 02:24:37;;;;;;;6.10;2.60;;;5.60;99.90;;;;;;5000952;28;20549;-55
2023/03/26 02:27:06;;;;;;;4.13;2.90;;;5.60;99.90;;;;;;5014186;28;20454;-54
2023/03/26 02:29:38;;;;;;;4.20;2.40;;;5.60;99.90;;;;;;5013740;28;20425;-54
2023/03/26 02:32:05;;;;;;;7.70;2.50;;;5.60;99.90;;;;;;5021426;28;20525;-55
2023/03/26 02:34:31;;;;;;;3.20;2.00;;;5.50;99.90;;;;;;5019217;28;20455;-56
2023/03/26 02:36:57;;;;;;;11.53;1.97;;;5.40;99.90;;;;;;5014299;28;20423;-56
2023/03/26 02:39:23;;;;;;;7.37;2.40;;;5.40;99.90;;;;;;5026200;28;20428;-57
2023/03/26 02:41:49;;;;;;;6.63;2.30;;;5.30;99.90;;;;;;5009062;28;20171;-57
2023/03/26 02:44:15;;;;;;;5.83;2.50;;;5.30;99.90;;;;;;5007929;28;20808;-57
2023/03/26 02:46:40;;;;;;;11.87;2.50;;;5.20;99.90;;;;;;5024982;28;20187;-54
2023/03/26 02:49:07;;;;;;;10.10;2.40;;;5.20;99.90;;;;;;5027617;28;20309;-57
2023/03/26 02:51:36;;;;;;;4.43;2.07;;;5.20;99.90;;;;;;5028058;28;20203;-57
2023/03/26 02:54:02;;;;;;;3.97;2.30;;;5.20;99.90;;;;;;5020754;28;20445;-54
2023/03/26 02:56:28;;;;;;;4.23;2.40;;;5.20;99.90;;;;;;5023624;28;20440;-54
2023/03/26 02:58:53;;;;;;;5.40;2.10;;;5.20;99.90;;;;;;5029350;28;20427;-55
2023/03/26 03:01:19;;;;;;;6.97;2.23;;;5.20;99.90;;;;;;5026418;28;20184;-55
2023/03/26 03:03:48;;;;;;;6.00;2.37;;;5.30;99.90;;;;;;5030045;28;20215;-54
2023/03/26 03:06:17;;;;;;;6.03;2.17;;;5.30;99.90;;;;;;5017563;28;20227;-54
2023/03/26 03:08:44;;;;;;;3.93;1.90;;;5.30;99.90;;;;;;5029210;28;20840;-54
2023/03/26 03:11:20;;;;;;;13.30;2.60;;;5.30;99.90;;;;;;5025686;28;20886;-55
2023/03/26 03:13:46;;;;;;;4.60;2.30;;;5.30;99.90;;;;;;5028525;28;20434;-55
2023/03/26 03:16:12;;;;;;;8.63;2.70;;;5.30;99.90;;;;;;5017586;28;20468;-57
2023/03/26 03:18:38;;;;;;;6.77;2.67;;;5.30;99.90;;;;;;5006926;28;20553;-55
2023/03/26 03:21:05;;;;;;;5.00;2.40;;;5.30;99.90;;;;;;5018575;28;20777;-54
2023/03/26 03:23:31;;;;;;;7.93;2.83;;;5.30;99.90;;;;;;5012122;28;20203;-58
2023/03/26 03:25:57;;;;;;;7.17;2.30;;;5.30;99.90;;;;;;5009270;28;20450;-58
2023/03/26 03:28:24;;;;;;;9.10;2.80;;;5.30;99.90;;;;;;5020137;28;20852;-56
2023/03/26 03:30:52;;;;;;;8.10;2.30;;;5.30;99.90;;;;;;5029304;28;20466;-55
2023/03/26 03:33:21;;;;;;;3.03;1.90;;;5.30;99.90;;;;;;5024349;28;20426;-55
2023/03/26 03:35:48;;;;;;;8.73;2.30;;;5.20;99.90;;;;;;5013935;28;20967;-59
2023/03/26 03:38:18;;;;;;;8.70;2.20;;;5.20;99.90;;;;;;5029604;28;20517;-52
2023/03/26 03:40:43;;;;;;;3.43;2.00;;;5.20;99.90;;;;;;5021329;28;20970;-55
2023/03/26 03:43:09;;;;;;;5.60;3.00;;;5.20;99.90;;;;;;5026569;28;20458;-55
2023/03/26 03:45:35;;;;;;;3.80;1.90;;;5.10;99.90;;;;;;5018159;28;21367;-54
2023/03/26 03:48:00;;;;;;;8.53;2.27;;;5.10;99.90;;;;;;5004811;28;20187;-57
2023/03/26 03:50:26;;;;;;;11.53;2.70;;;5.10;99.90;;;;;;5023862;28;20204;-56
2023/03/26 03:52:52;;;;;;;4.07;2.10;;;5.10;99.90;;;;;;5012269;28;20254;-57
2023/03/26 03:55:18;;;;;;;2.87;2.10;;;5.20;99.90;;;;;;5017513;28;20302;-57
2023/03/26 03:57:44;;;;;;;5.73;1.90;;;5.20;99.90;;;;;;5007896;28;20488;-53
2023/03/26 04:00:10;;;;;;;5.00;2.63;;;5.20;99.90;;;;;;5006280;28;20226;-57
2023/03/26 04:02:37;;;;;;;4.77;2.07;;;5.10;99.90;;;;;;5007319;28;20435;-55
2023/03/26 04:05:04;;;;;;;6.10;1.87;;;5.10;99.90;;;;;;5012082;28;20446;-54
2023/03/26 04:07:31;;;;;;;3.57;1.73;;;5.20;99.90;;;;;;5018539;28;20521;-58
2023/03/26 04:09:58;;;;;;;7.90;2.10;;;5.20;99.90;;;;;;5008223;28;22096;-55
2023/03/26 04:12:27;;;;;;;5.17;1.90;;;5.20;99.90;;;;;;5009781;28;20431;-58
2023/03/26 04:14:52;;;;;;;3.50;1.90;;;5.20;99.90;;;;;;5026210;28;20472;-57
2023/03/26 04:17:20;;;;;;;6.50;2.33;;;5.30;99.90;;;;;;5007188;28;20974;-57
2023/03/26 04:19:46;;;;;;;6.53;2.17;;;5.30;99.90;;;;;;5010180;28;20211;-58
2023/03/26 04:22:12;;;;;;;4.57;2.13;;;5.30;99.90;;;;;;5003177;28;21377;-57
2023/03/26 04:24:41;;;;;;;7.23;2.30;;;5.30;99.90;;;;;;5011862;28;20458;-58
2023/03/26 04:27:11;;;;;;;5.33;2.37;;;5.30;99.90;;;;;;5011272;28;20186;-56
2023/03/26 04:29:41;;;;;;;3.60;2.50;;;5.40;99.90;;;;;;5009281;28;21699;-54
2023/03/26 04:32:21;;;;;;;12.13;2.80;;;5.40;99.90;;;;;;5008141;28;20433;-57
2023/03/26 04:34:47;;;;;;;10.43;3.30;;;5.40;99.90;;;;;;5009608;28;21520;-59
2023/03/26 04:37:38;;;;;;;7.33;2.50;;;5.40;99.90;;;;;;5011811;28;20441;-55
2023/03/26 04:40:09;;;;;;;8.33;2.23;;;5.40;99.90;;;;;;5026452;28;20270;-54
2023/03/26 04:42:40;;;;;;;6.80;2.63;;;5.40;99.90;;;;;;5013174;28;20439;-55
2023/03/26 04:45:07;;;;;;;8.47;2.80;;;5.40;99.90;;;;;;5007739;28;20558;-57
2023/03/26 04:47:35;;;;;;;6.43;2.10;;;5.40;99.90;;;;;;5004246;28;20566;-58
2023/03/26 04:50:02;;;;;;;4.47;2.53;;;5.40;99.90;;;;;;5002248;28;20458;-57
2023/03/26 04:52:28;;;;;;;9.00;2.60;;;5.40;99.90;;;;;;5012310;28;20490;-54
2023/03/26 04:54:54;;;;;;;7.73;2.40;;;5.40;99.90;;;;;;5005439;28;20541;-57
2023/03/26 04:57:47;;;;;;;5.37;2.60;;;5.40;99.90;;;;;;5009257;28;21080;-57
2023/03/26 05:00:15;;;;;;;9.63;2.80;;;5.40;99.90;;;;;;5002038;28;20512;-56
2023/03/26 05:02:44;;;;;;;6.27;2.10;;;5.40;99.90;;;;;;5008241;28;20446;-55
2023/03/26 05:05:10;;;;;;;12.23;2.60;;;5.40;99.90;;;;;;5014867;28;20537;-57
2023/03/26 05:07:36;;;;;;;5.90;2.20;;;5.40;99.90;;;;;;5003596;28;20506;-55
2023/03/26 05:10:03;;;;;;;6.07;2.40;;;5.30;99.90;;;;;;5003321;28;20527;-58
2023/03/26 05:12:29;;;;;;;8.00;2.47;;;5.30;99.90;;;;;;4986225;28;20435;-58
2023/03/26 05:14:54;;;;;;;3.57;2.47;;;5.20;99.90;;;;;;5025445;28;20453;-56
2023/03/26 05:17:22;;;;;;;6.00;2.30;;;5.20;99.90;;;;;;5016394;28;20422;-57
2023/03/26 05:19:47;;;;;;;6.00;2.80;;;5.20;99.90;;;;;;5022755;28;20184;-56
2023/03/26 05:22:13;;;;;;;4.60;1.83;;;5.20;99.90;;;;;;5011803;28;20444;-57
2023/03/26 05:24:39;;;;;;;3.60;2.00;;;5.20;99.90;;;;;;5012585;28;20293;-55
2023/03/26 05:27:05;;;;;;;5.30;2.10;;;5.20;99.90;;;;;;5005110;28;20216;-55
2023/03/26 05:29:30;;;;;;;6.83;2.80;;;5.20;99.90;;;;;;5001680;28;20230;-53
2023/03/26 05:31:56;;;;;;;9.40;2.33;;;5.30;99.90;;;;;;5013435;28;20514;-55
2023/03/26 05:34:25;;;;;;;8.53;2.60;;;5.30;99.90;;;;;;5009520;28;20187;-57
2023/03/26 05:36:51;;;;;;;8.83;2.17;;;5.30;99.90;;;;;;5002811;28;20437;-59
2023/03/26 05:39:16;;;;;;;4.17;2.80;;;5.30;99.90;;;;;;5010300;28;20800;-57
2023/03/26 05:41:42;;;;;;;7.73;3.00;;;5.30;99.90;;;;;;5015000;28;20580;-59
2023/03/26 05:44:08;;;;;;;8.27;3.23;;;5.30;99.90;;;;;;5004536;28;20191;-58
2023/03/26 05:46:33;;;;;;;9.80;2.90;;;5.30;99.90;;;;;;5012027;28;20651;-55
2023/03/26 05:48:59;;;;;;;4.10;2.20;;;5.30;99.90;;;;;;5011650;28;20184;-57
2023/03/26 05:51:25;;;;;;;6.50;2.63;;;5.30;99.90;;;;;;5004839;28;20206;-57
2023/03/26 05:53:51;;;;;;;6.43;3.00;;;5.30;99.90;;;;;;5008482;28;20790;-58
2023/03/26 05:56:16;;;;;;;5.40;2.90;;;5.40;99.90;;;;;;5007075;28;20219;-55
2023/03/26 05:58:42;;;;;;;4.13;2.30;;;5.40;99.90;;;;;;5006719;28;20179;-55
2023/03/26 06:01:15;;;;;;;8.43;2.60;;;5.30;99.90;;;;;;5012031;28;20660;-56
2023/03/26 06:03:41;;;;;;;7.47;3.37;;;5.30;99.90;;;;;;5008218;28;20202;-56
2023/03/26 06:06:19;;;;;;;6.67;2.97;;;5.40;99.90;;;;;;5012554;28;20550;-55
2023/03/26 06:08:47;;;;;;;9.10;2.67;;;5.30;99.90;;;;;;5007669;28;20430;-53
2023/03/26 06:11:14;;;;;;;7.47;3.83;;;5.30;99.90;;;;;;5007030;28;22493;-58
2023/03/26 06:13:40;;;;;;;17.67;3.47;;;5.30;99.90;;;;;;5016939;28;20429;-55
2023/03/26 06:16:08;;;;;;;12.30;3.20;;;5.30;99.90;;;;;;5022350;28;20446;-54
2023/03/26 06:18:34;;;;;;;10.83;3.80;;;5.30;99.90;;;;;;5028816;28;20437;-55
2023/03/26 06:20:59;;;;;;;8.23;3.03;;;5.30;99.90;;;;;;5021798;28;20899;-58
2023/03/26 06:23:25;;;;;;;13.33;4.63;;;5.30;99.90;;;;;;5019942;28;20481;-55
2023/03/26 06:25:51;;;;;;;13.60;3.30;;;5.30;99.90;;;;;;5018451;28;20211;-53
2023/03/26 06:28:16;;;;;;;6.33;3.20;;;5.30;99.90;;;;;;5017867;28;20620;-57
2023/03/26 06:30:42;;;;;;;8.63;3.43;;;5.30;99.90;;;;;;5018157;28;20211;-55
2023/03/26 06:33:08;;;;;;;6.20;3.63;;;5.30;99.90;;;;;;5026178;28;20180;-54
2023/03/26 06:35:33;;;;;;;8.27;4.23;;;5.30;99.90;;;;;;5027950;28;20211;-54
2023/03/26 06:37:59;;;;;;;9.37;3.73;;;5.30;99.90;;;;;;5026258;28;20258;-57
2023/03/26 06:40:25;;;;;;;6.97;3.60;;;5.40;99.90;;;;;;5024684;28;20234;-58
2023/03/26 06:42:51;;;;;;;14.73;3.67;;;5.40;99.90;;;;;;5025285;28;20653;-55
2023/03/26 06:45:16;;;;;;;11.90;3.63;;;5.40;99.90;;;;;;5025950;28;20563;-59
2023/03/26 06:47:42;;;;;;;9.37;3.87;;;5.50;99.90;;;;;;5020061;28;20171;-57
2023/03/26 06:50:10;;;;;;;7.57;4.10;;;5.50;99.90;;;;;;5016856;28;20302;-60
2023/03/26 06:52:36;;;;;;;7.93;3.83;;;5.50;99.90;;;;;;5021673;28;20309;-58
2023/03/26 06:55:01;;;;;;;10.50;5.47;;;5.50;99.90;;;;;;5017631;28;20497;-58
2023/03/26 06:57:27;;;;;;;9.33;4.87;;;5.50;99.90;;;;;;5021924;28;20199;-57
2023/03/26 06:59:53;;;;;;;7.30;4.70;;;5.60;99.90;;;;;;5017732;28;20196;-57
2023/03/26 07:02:18;;;;;;;11.50;4.80;;;5.60;99.90;;;;;;5022526;28;20180;-57
2023/03/26 07:04:44;;;;;;;9.97;3.50;;;5.60;99.90;;;;;;5026362;28;20715;-60
2023/03/26 07:07:09;;;;;;;6.57;3.40;;;5.60;99.90;;;;;;5023885;28;20188;-57
2023/03/26 07:09:35;;;;;;;5.40;3.00;;;5.60;99.90;;;;;;5025210;28;20179;-56
2023/03/26 07:12:01;;;;;;;7.77;3.53;;;5.60;99.90;;;;;;5025331;28;20175;-58
2023/03/26 07:14:29;;;;;;;5.77;3.50;;;5.60;99.90;;;;;;5034684;28;20257;-56
2023/03/26 07:16:57;;;;;;;5.80;3.10;;;5.70;99.90;;;;;;5033694;28;20218;-59
2023/03/26 07:19:22;;;;;;;6.87;2.83;;;5.60;99.90;;;;;;5024538;28;20509;-59
2023/03/26 07:21:48;;;;;;;8.27;2.80;;;5.60;99.90;;;;;;5012181;28;20456;-59
2023/03/26 07:24:15;;;;;;;23.07;6.93;;;5.60;99.90;;;;;;5023913;28;20199;-58
2023/03/26 07:26:50;;;;;;;11.50;4.70;;;5.60;99.90;;;;;;5023865;28;20182;-61
2023/03/26 07:29:15;;;;;;;10.63;5.13;;;5.60;99.90;;;;;;5013762;28;20444;-59
2023/03/26 07:31:47;;;;;;;14.10;6.70;;;5.60;99.90;;;;;;5018326;28;20466;-59
2023/03/26 07:34:25;;;;;;;15.23;4.87;;;5.70;99.90;;;;;;5024770;28;20180;-59
2023/03/26 07:37:00;;;;;;;12.80;8.47;;;5.70;99.90;;;;;;5021695;28;20437;-58
2023/03/26 07:39:37;;;;;;;21.93;13.20;;;5.80;99.90;;;;;;5024537;28;20427;-58
2023/03/26 07:42:38;;;;;;;24.23;9.10;;;5.80;99.90;;;;;;5026316;28;20446;-57
2023/03/26 07:45:10;;;;;;;8.77;5.33;;;5.90;99.90;;;;;;5024644;28;20443;-58
2023/03/26 07:47:36;;;;;;;8.97;5.10;;;5.90;99.90;;;;;;5021670;28;20427;-61
2023/03/26 07:50:03;;;;;;;14.00;6.30;;;5.90;99.90;;;;;;5018187;28;20518;-55
2023/03/26 07:52:29;;;;;;;13.90;6.63;;;5.90;99.90;;;;;;5012756;28;20427;-56
2023/03/26 07:54:55;;;;;;;11.93;5.10;;;6.00;99.90;;;;;;5007862;28;20454;-58
2023/03/26 07:57:46;;;;;;;10.90;5.30;;;6.00;99.90;;;;;;5022209;28;20442;-59
2023/03/26 08:00:47;;;;;;;10.07;4.70;;;6.10;99.90;;;;;;5019179;28;20434;-55
2023/03/26 08:03:35;;;;;;;4.60;4.10;;;6.10;99.90;;;;;;5021401;28;20426;-54
2023/03/26 08:06:31;;;;;;;7.00;3.80;;;6.20;99.90;;;;;;5026050;28;20446;-56
2023/03/26 08:09:20;;;;;;;5.00;3.43;;;6.30;99.90;;;;;;5027806;28;20462;-56
2023/03/26 08:11:57;;;;;;;9.00;4.10;;;6.40;99.90;;;;;;5026609;28;20460;-56
2023/03/26 08:14:37;;;;;;;6.10;4.00;;;6.50;99.90;;;;;;5018886;28;20443;-57
2023/03/26 08:17:13;;;;;;;6.93;3.83;;;6.50;99.90;;;;;;5017285;28;20434;-54
2023/03/26 08:19:57;;;;;;;5.23;3.60;;;6.60;99.90;;;;;;5022566;28;20494;-57
2023/03/26 08:22:49;;;;;;;6.33;2.77;;;6.70;99.90;;;;;;5015620;28;20864;-56
2023/03/26 08:25:24;;;;;;;9.20;3.00;;;6.70;99.90;;;;;;5021576;28;20889;-55
2023/03/26 08:28:12;;;;;;;7.00;3.57;;;6.80;99.90;;;;;;5023272;28;20435;-58
2023/03/26 08:30:38;;;;;;;4.37;3.60;;;6.80;99.90;;;;;;5011564;28;20568;-56
2023/03/26 08:33:11;;;;;;;5.60;3.10;;;6.80;99.90;;;;;;5012046;28;20914;-50
2023/03/26 08:35:43;;;;;;;5.23;3.00;;;6.90;99.90;;;;;;5016372;28;20204;-54
2023/03/26 08:38:13;;;;;;;4.20;3.27;;;6.90;99.90;;;;;;5015782;28;20438;-59
2023/03/26 08:41:04;;;;;;;4.07;2.57;;;6.90;99.90;;;;;;5021390;28;20438;-58
2023/03/26 08:43:55;;;;;;;5.00;3.13;;;6.90;99.90;;;;;;5025551;28;20522;-58
2023/03/26 08:46:29;;;;;;;3.07;2.77;;;6.90;99.90;;;;;;5024316;28;20517;-60
2023/03/26 08:49:26;;;;;;;8.83;3.53;;;6.90;99.90;;;;;;5030908;28;20430;-58
2023/03/26 08:52:20;;;;;;;8.33;3.27;;;6.80;99.90;;;;;;5021538;28;20466;-60
2023/03/26 08:55:13;;;;;;;6.17;2.47;;;6.80;99.90;;;;;;5013472;28;20434;-57
2023/03/26 08:58:00;;;;;;;3.70;3.20;;;6.80;99.90;;;;;;5019017;28;20430;-59
2023/03/26 09:00:53;;;;;;;3.53;3.17;;;6.80;99.90;;;;;;5023503;28;20422;-56
2023/03/26 09:03:26;;;;;;;5.30;3.90;;;6.80;99.90;;;;;;5012873;28;20441;-58
2023/03/26 09:06:10;;;;;;;6.10;3.40;;;6.90;99.90;;;;;;5016094;28;20454;-57
2023/03/26 09:09:04;;;;;;;3.77;3.17;;;6.90;99.90;;;;;;5016482;28;20509;-57
2023/03/26 09:11:39;;;;;;;9.10;3.60;;;6.90;99.90;;;;;;5020263;28;20458;-62
2023/03/26 09:14:33;;;;;;;5.10;3.27;;;6.90;99.90;;;;;;5009414;28;20430;-53
2023/03/26 09:17:14;;;;;;;3.57;3.17;;;6.90;99.90;;;;;;5017381;28;20991;-59
2023/03/26 09:20:21;;;;;;;9.80;3.40;;;6.90;99.90;;;;;;5023282;28;20434;-59
2023/03/26 09:22:52;;;;;;;6.67;3.00;;;6.90;99.90;;;;;;5011890;28;20475;-59
2023/03/26 09:25:34;;;;;;;4.87;3.50;;;6.80;99.90;;;;;;5017331;28;20458;-58
2023/03/26 09:28:24;;;;;;;6.53;3.27;;;6.90;99.90;;;;;;5020585;28;20425;-58
2023/03/26 09:31:07;;;;;;;5.83;4.03;;;6.90;99.90;;;;;;5012997;28;20458;-59
2023/03/26 09:33:35;;;;;;;6.10;2.83;;;6.90;99.90;;;;;;5015559;28;20439;-59
2023/03/26 09:36:07;;;;;;;4.73;2.70;;;6.90;99.90;;;;;;5014970;28;20962;-59
2023/03/26 09:38:43;;;;;;;4.47;3.00;;;6.90;99.90;;;;;;5016668;28;20434;-58
2023/03/26 09:41:33;;;;;;;4.50;3.47;;;6.90;99.90;;;;;;5020347;28;20449;-57
2023/03/26 09:44:26;;;;;;;4.53;3.17;;;6.90;99.90;;;;;;5022321;28;20430;-58
2023/03/26 09:46:58;;;;;;;5.93;3.20;;;7.00;99.90;;;;;;5027564;28;20993;-57
2023/03/26 09:49:48;;;;;;;4.23;3.33;;;7.10;99.90;;;;;;5027989;28;20426;-58
2023/03/26 09:52:35;;;;;;;6.50;3.03;;;7.30;99.90;;;;;;5022290;28;20439;-57
2023/03/26 09:55:00;;;;;;;4.40;3.10;;;7.50;99.90;;;;;;5009963;28;20457;-58
2023/03/26 09:57:52;;;;;;;4.97;2.90;;;7.80;99.90;;;;;;5011028;28;20446;-64
2023/03/26 10:00:34;;;;;;;5.37;3.57;;;8.20;99.90;;;;;;5011088;28;20164;-62
2023/03/26 10:03:05;;;;;;;2.70;2.37;;;8.50;99.90;;;;;;5014174;28;21419;-60
2023/03/26 10:06:02;;;;;;;2.73;2.27;;;8.80;99.90;;;;;;5020936;28;20446;-61
2023/03/26 10:08:59;;;;;;;5.50;2.50;;;9.10;99.90;;;;;;5019521;28;20422;-62
2023/03/26 10:11:55;;;;;;;3.50;2.97;;;9.20;99.90;;;;;;5020903;28;20601;-59
2023/03/26 10:14:48;;;;;;;2.30;1.80;;;9.30;99.90;;;;;;5017635;28;20497;-58
2023/03/26 10:17:19;;;;;;;2.30;2.10;;;9.40;99.90;;;;;;5016740;28;20438;-56
2023/03/26 10:20:20;;;;;;;2.83;1.83;;;9.40;99.90;;;;;;5020193;28;20434;-58
2023/03/26 10:23:03;;;;;;;2.17;1.70;;;9.60;99.90;;;;;;5013172;28;20445;-60
2023/03/26 10:26:07;;;;;;;3.80;2.30;;;9.90;99.90;;;;;;5010446;28;20458;-58
2023/03/26 10:28:58;;;;;;;7.97;3.43;;;10.10;99.90;;;;;;5022080;28;20435;-57
2023/03/26 10:31:39;;;;;;;3.20;2.00;;;10.20;99.90;;;;;;5016291;28;20451;-59
2023/03/26 10:34:29;;;;;;;4.83;2.17;;;10.10;99.90;;;;;;5019022;28;20441;-59
2023/03/26 10:37:05;;;;;;;2.50;1.83;;;10.00;99.90;;;;;;5014508;28;20414;-56
2023/03/26 10:39:49;;;;;;;4.27;2.33;;;9.90;99.90;;;;;;5013743;28;20501;-55
2023/03/26 10:42:33;;;;;;;3.30;2.50;;;9.80;99.90;;;;;;5016335;28;20514;-58
2023/03/26 10:45:26;;;;;;;2.40;2.20;;;9.70;99.90;;;;;;5020206;28;20450;-59
2023/03/26 10:48:30;;;;;;;3.93;2.10;;;9.70;99.90;;;;;;5016402;28;20441;-59
2023/03/26 10:51:01;;;;;;;2.40;1.50;;;10.00;99.90;;;;;;5019913;28;20466;-60
2023/03/26 10:53:30;;;;;;;2.53;1.70;;;10.30;99.90;;;;;;5021085;28;20425;-60
2023/03/26 10:56:06;;;;;;;3.97;1.93;;;10.40;99.90;;;;;;5019054;28;22406;-58
2023/03/26 10:58:34;;;;;;;1.80;1.53;;;10.70;99.90;;;;;;5015356;28;20422;-58
2023/03/26 11:01:09;;;;;;;1.83;1.70;;;10.90;95.50;;;;;;5018701;28;20427;-58
2023/03/26 11:03:55;;;;;;;2.97;1.67;;;11.00;99.90;;;;;;5015231;28;20927;-59
2023/03/26 11:06:29;;;;;;;3.17;1.63;;;11.20;99.90;;;;;;5013850;28;20513;-59
2023/03/26 11:09:21;;;;;;;2.03;1.63;;;11.10;83.80;;;;;;5010219;28;20457;-57
2023/03/26 11:12:04;;;;;;;1.83;1.50;;;10.90;80.30;;;;;;5018841;28;20459;-59
2023/03/26 11:14:51;;;;;;;5.30;1.60;;;10.60;78.60;;;;;;5017828;28;20623;-59
2023/03/26 11:17:31;;;;;;;4.50;1.60;;;10.40;87.10;;;;;;5022274;28;20958;-58
2023/03/26 11:20:05;;;;;;;3.03;1.40;;;10.10;90.40;;;;;;5024702;28;20426;-56
2023/03/26 11:22:51;;;;;;;3.53;1.70;;;9.80;93.70;;;;;;5021222;28;20477;-57
2023/03/26 11:25:29;;;;;;;2.77;1.40;;;9.30;99.60;;;;;;5015852;28;20465;-59
2023/03/26 11:28:20;;;;;;;2.30;1.53;;;9.00;99.90;;;;;;5013557;28;20431;-58
2023/03/26 11:31:03;;;;;;;1.37;1.27;;;8.80;99.90;;;;;;5009898;28;20459;-57
2023/03/26 11:33:36;;;;;;;4.97;1.73;;;8.60;99.90;;;;;;5017376;28;20478;-58
2023/03/26 11:36:07;;;;;;;3.50;1.50;;;8.50;99.90;;;;;;5013659;28;20469;-58
2023/03/26 11:38:40;;;;;;;3.17;1.53;;;8.50;99.90;;;;;;5019771;28;20427;-58
2023/03/26 11:41:20;;;;;;;2.80;1.70;;;8.50;99.90;;;;;;5015850;28;20450;-59
2023/03/26 11:43:51;;;;;;;2.97;1.90;;;8.50;99.90;;;;;;5017536;28;20439;-58
2023/03/26 11:46:20;;;;;;;1.83;1.50;;;8.50;99.90;;;;;;5019194;28;20447;-60
2023/03/26 11:48:57;;;;;;;3.20;1.80;;;8.60;99.90;;;;;;5023623;28;21006;-61
2023/03/26 11:51:31;;;;;;;2.37;1.50;;;8.70;99.90;;;;;;5013838;28;20509;-59
2023/03/26 11:53:58;;;;;;;3.67;2.07;;;9.00;99.90;;;;;;5022098;28;20443;-59
2023/03/26 11:56:29;;;;;;;3.20;1.30;;;9.40;99.90;;;;;;5016504;28;20459;-58
2023/03/26 11:59:04;;;;;;;2.53;1.57;;;9.90;99.30;;;;;;5008790;28;20434;-60
2023/03/26 12:01:43;;;;;;;2.27;1.90;;;10.40;95.10;;;;;;5010719;28;20442;-59
2023/03/26 12:04:14;;;;;;;4.10;1.50;;;10.90;94.20;;;;;;5010881;28;20904;-61
2023/03/26 12:06:55;;;;;;;5.40;1.63;;;11.30;87.60;;;;;;5008871;28;20443;-54
2023/03/26 12:09:21;;;;;;;3.90;1.47;;;11.50;74.90;;;;;;5019125;28;20438;-54
2023/03/26 12:11:49;;;;;;;3.93;1.80;;;11.50;75.80;;;;;;5015688;28;20942;-55
2023/03/26 12:14:22;;;;;;;2.80;1.43;;;11.30;67.50;;;;;;5013085;28;20470;-55
2023/03/26 12:17:10;;;;;;;3.73;1.30;;;11.00;64.30;;;;;;5014676;28;20426;-53
2023/03/26 12:19:42;;;;;;;2.40;1.30;;;10.60;60.20;;;;;;5015987;28;20440;-55
2023/03/26 12:22:37;;;;;;;3.33;1.60;;;10.20;64.50;;;;;;5008383;28;20458;-59
2023/03/26 12:25:17;;;;;;;2.97;1.40;;;9.90;73.70;;;;;;5004044;28;20485;-58
2023/03/26 12:28:24;;;;;;;3.73;1.50;;;9.70;79.50;;;;;;5007306;28;21088;-58
2023/03/26 12:30:53;;;;;;;1.43;1.07;;;9.70;69.40;;;;;;5015423;28;20520;-56
2023/03/26 12:33:25;;;;;;;5.43;1.60;;;9.60;71.00;;;;;;5013499;28;20522;-57
2023/03/26 12:35:52;;;;;;;2.40;1.50;;;9.60;69.80;;;;;;5017521;28;20445;-55
2023/03/26 12:38:37;;;;;;;11.00;4.93;;;9.70;68.30;;;;;;5018977;28;20423;-57
2023/03/26 12:41:09;;;;;;;1.50;1.40;;;10.10;71.00;;;;;;5019228;28;21378;-58
2023/03/26 12:43:43;;;;;;;2.10;1.23;;;10.70;66.00;;;;;;5017694;28;20466;-57
2023/03/26 12:46:26;;;;;;;2.90;1.77;;;11.30;65.30;;;;;;5015675;28;20482;-58
2023/03/26 12:48:58;;;;;;;3.43;1.50;;;11.90;63.90;;;;;;5014712;28;20456;-57
2023/03/26 12:51:30;;;;;;;1.17;1.07;;;12.10;58.30;;;;;;5019234;28;20957;-56
2023/03/26 12:54:05;;;;;;;1.53;1.20;;;11.90;55.10;;;;;;5017540;28;20846;-57
2023/03/26 12:56:48;;;;;;;5.30;1.30;;;11.40;54.90;;;;;;5015409;28;20437;-56
2023/03/26 12:59:30;;;;;;;2.23;1.30;;;10.90;56.90;;;;;;5016320;28;20496;-58
2023/03/26 13:02:32;;;;;;;4.30;1.40;;;10.30;61.50;;;;;;5015959;28;20473;-56
2023/03/26 13:05:13;;;;;;;2.50;1.20;;;9.80;67.30;;;;;;5022361;28;20442;-54
2023/03/26 13:08:00;;;;;;;2.67;1.87;;;9.60;72.30;;;;;;5016382;28;20438;-57
2023/03/26 13:10:48;;;;;;;1.47;1.27;;;9.90;73.70;;;;;;5016577;28;20466;-57
2023/03/26 13:13:35;;;;;;;1.67;1.27;;;10.30;66.30;;;;;;5013997;28;20817;-55
2023/03/26 13:16:22;;;;;;;2.00;1.23;;;11.00;65.00;;;;;;5013296;28;20446;-58
2023/03/26 13:19:24;;;;;;;3.30;1.83;;;11.40;61.90;;;;;;5023938;28;20481;-57
2023/03/26 13:22:07;;;;;;;2.33;1.70;;;11.60;59.00;;;;;;5019092;28;20453;-57
2023/03/26 13:24:52;;;;;;;2.47;1.10;;;11.50;57.50;;;;;;5018677;28;20501;-57
2023/03/26 13:27:41;;;;;;;2.00;1.43;;;11.50;57.30;;;;;;5024471;28;22822;-60
2023/03/26 13:30:22;;;;;;;1.43;1.33;;;11.40;58.00;;;;;;5022415;28;20965;-57
2023/03/26 13:33:06;;;;;;;5.47;2.57;;;11.70;58.10;;;;;;5022385;28;20521;-58